sensor_id;sensor_type;location;lat;lon;timestamp;pressure;altitude;pressure_sealevel;temperature;humidity
64551;BME280;50945;44.472;-123.352;2022-11-20T00:01:18;101151.69;;;5.86;57.04
64551;BME280;50945;44.472;-123.352;2022-11-20T00:03:45;101153.94;;;5.81;57.58
64551;BME280;50945;44.472;-123.352;2022-11-20T00:06:14;101160.63;;;5.77;57.90
64551;BME280;50945;44.472;-123.352;2022-11-20T00:08:41;101162.75;;;5.73;58.01
64551;BME280;50945;44.472;-123.352;2022-11-20T00:11:27;101163.16;;;5.68;58.38
64551;BME280;50945;44.472;-123.352;2022-11-20T00:13:56;101165.44;;;5.63;58.69
64551;BME280;50945;44.472;-123.352;2022-11-20T00:16:24;101159.53;;;5.58;58.51
64551;BME280;50945;44.472;-123.352;2022-11-20T00:18:51;101155.50;;;5.52;58.74
64551;BME280;50945;44.472;-123.352;2022-11-20T00:21:18;101165.88;;;5.47;59.07
64551;BME280;50945;44.472;-123.352;2022-11-20T00:23:45;101164.69;;;5.40;59.07
64551;BME280;50945;44.472;-123.352;2022-11-20T00:26:15;101164.47;;;5.32;58.84
64551;BME280;50945;44.472;-123.352;2022-11-20T00:28:42;101157.88;;;5.25;59.23
64551;BME280;50945;44.472;-123.352;2022-11-20T00:31:12;101163.06;;;5.17;59.56
64551;BME280;50945;44.472;-123.352;2022-11-20T00:33:40;101163.97;;;5.06;59.61
64551;BME280;50945;44.472;-123.352;2022-11-20T00:36:09;101168.31;;;4.97;60.11
64551;BME280;50945;44.472;-123.352;2022-11-20T00:38:37;101168.50;;;4.84;60.13
64551;BME280;50945;44.472;-123.352;2022-11-20T00:41:05;101169.63;;;4.70;60.26
64551;BME280;50945;44.472;-123.352;2022-11-20T00:43:33;101169.78;;;4.57;60.67
64551;BME280;50945;44.472;-123.352;2022-11-20T00:46:01;101185.31;;;4.44;61.42
64551;BME280;50945;44.472;-123.352;2022-11-20T00:48:28;101174.88;;;4.28;61.34
64551;BME280;50945;44.472;-123.352;2022-11-20T00:50:55;101173.28;;;4.14;61.79
64551;BME280;50945;44.472;-123.352;2022-11-20T00:53:21;101171.44;;;4.04;61.55
64551;BME280;50945;44.472;-123.352;2022-11-20T00:56:04;101179.28;;;3.95;60.53
64551;BME280;50945;44.472;-123.352;2022-11-20T00:58:37;101180.13;;;3.85;61.69
64551;BME280;50945;44.472;-123.352;2022-11-20T01:03:33;101179.25;;;3.61;62.03
64551;BME280;50945;44.472;-123.352;2022-11-20T01:06:04;101187.34;;;3.50;62.30
64551;BME280;50945;44.472;-123.352;2022-11-20T01:08:32;101177.22;;;3.41;62.33
64551;BME280;50945;44.472;-123.352;2022-11-20T01:11:00;101186.66;;;3.35;62.76
64551;BME280;50945;44.472;-123.352;2022-11-20T01:13:28;101196.31;;;3.27;62.43
64551;BME280;50945;44.472;-123.352;2022-11-20T01:16:08;101188.31;;;3.14;62.76
64551;BME280;50945;44.472;-123.352;2022-11-20T01:18:36;101198.19;;;3.02;63.00
64551;BME280;50945;44.472;-123.352;2022-11-20T01:21:08;101192.09;;;2.87;63.49
64551;BME280;50945;44.472;-123.352;2022-11-20T01:23:37;101193.88;;;2.75;63.69
64551;BME280;50945;44.472;-123.352;2022-11-20T01:26:06;101201.47;;;2.70;63.89
64551;BME280;50945;44.472;-123.352;2022-11-20T01:28:33;101207.19;;;2.65;63.66
64551;BME280;50945;44.472;-123.352;2022-11-20T01:31:00;101208.63;;;2.58;64.06
64551;BME280;50945;44.472;-123.352;2022-11-20T01:33:27;101202.81;;;2.52;63.94
64551;BME280;50945;44.472;-123.352;2022-11-20T01:36:03;101205.09;;;2.45;64.20
64551;BME280;50945;44.472;-123.352;2022-11-20T01:38:30;101214.59;;;2.38;64.31
64551;BME280;50945;44.472;-123.352;2022-11-20T01:40:57;101208.81;;;2.31;64.39
64551;BME280;50945;44.472;-123.352;2022-11-20T01:43:23;101210.88;;;2.27;64.70
64551;BME280;50945;44.472;-123.352;2022-11-20T01:51:35;101217.66;;;2.07;65.79
64551;BME280;50945;44.472;-123.352;2022-11-20T01:54:08;101219.94;;;2.01;65.35
64551;BME280;50945;44.472;-123.352;2022-11-20T01:56:39;101220.47;;;1.93;65.44
64551;BME280;50945;44.472;-123.352;2022-11-20T01:59:08;101224.56;;;1.86;65.66
64551;BME280;50945;44.472;-123.352;2022-11-20T02:01:36;101214.31;;;1.78;65.50
64551;BME280;50945;44.472;-123.352;2022-11-20T02:04:06;101222.06;;;1.70;65.52
64551;BME280;50945;44.472;-123.352;2022-11-20T02:06:38;101219.72;;;1.65;66.04
64551;BME280;50945;44.472;-123.352;2022-11-20T02:09:06;101221.88;;;1.60;66.15
64551;BME280;50945;44.472;-123.352;2022-11-20T02:11:33;101225.63;;;1.58;66.87
64551;BME280;50945;44.472;-123.352;2022-11-20T02:13:59;101229.41;;;1.55;66.12
64551;BME280;50945;44.472;-123.352;2022-11-20T02:16:30;101235.09;;;1.50;66.47
64551;BME280;50945;44.472;-123.352;2022-11-20T02:18:59;101227.53;;;1.43;66.53
64551;BME280;50945;44.472;-123.352;2022-11-20T02:21:37;101237.88;;;1.36;66.42
64551;BME280;50945;44.472;-123.352;2022-11-20T02:24:10;101235.50;;;1.31;66.84
64551;BME280;50945;44.472;-123.352;2022-11-20T02:29:19;101234.81;;;1.28;66.66
64551;BME280;50945;44.472;-123.352;2022-11-20T02:31:50;101234.06;;;1.26;66.51
64551;BME280;50945;44.472;-123.352;2022-11-20T02:34:17;101236.97;;;1.23;66.68
64551;BME280;50945;44.472;-123.352;2022-11-20T02:36:44;101241.81;;;1.18;66.57
64551;BME280;50945;44.472;-123.352;2022-11-20T02:39:13;101227.78;;;1.12;66.71
64551;BME280;50945;44.472;-123.352;2022-11-20T02:41:43;101233.47;;;1.08;67.02
64551;BME280;50945;44.472;-123.352;2022-11-20T02:44:10;101243.56;;;1.04;67.51
64551;BME280;50945;44.472;-123.352;2022-11-20T02:46:39;101240.22;;;1.01;67.50
64551;BME280;50945;44.472;-123.352;2022-11-20T02:49:06;101242.34;;;0.95;67.55
64551;BME280;50945;44.472;-123.352;2022-11-20T02:51:32;101249.00;;;0.90;67.63
64551;BME280;50945;44.472;-123.352;2022-11-20T02:53:59;101244.69;;;0.87;67.02
64551;BME280;50945;44.472;-123.352;2022-11-20T02:56:26;101243.81;;;0.87;68.26
64551;BME280;50945;44.472;-123.352;2022-11-20T02:58:53;101239.41;;;0.86;67.64
64551;BME280;50945;44.472;-123.352;2022-11-20T03:01:19;101247.59;;;0.84;67.87
64551;BME280;50945;44.472;-123.352;2022-11-20T03:03:46;101256.53;;;0.85;67.88
64551;BME280;50945;44.472;-123.352;2022-11-20T03:06:16;101255.66;;;0.84;67.71
64551;BME280;50945;44.472;-123.352;2022-11-20T03:08:43;101260.19;;;0.84;67.60
64551;BME280;50945;44.472;-123.352;2022-11-20T03:11:09;101263.16;;;0.79;67.61
64551;BME280;50945;44.472;-123.352;2022-11-20T03:13:36;101263.16;;;0.79;67.94
64551;BME280;50945;44.472;-123.352;2022-11-20T03:16:11;101264.13;;;0.78;68.19
64551;BME280;50945;44.472;-123.352;2022-11-20T03:18:39;101264.25;;;0.77;67.36
64551;BME280;50945;44.472;-123.352;2022-11-20T03:21:07;101267.13;;;0.73;68.05
64551;BME280;50945;44.472;-123.352;2022-11-20T03:23:34;101260.00;;;0.72;68.21
64551;BME280;50945;44.472;-123.352;2022-11-20T03:26:13;101259.06;;;0.73;68.29
64551;BME280;50945;44.472;-123.352;2022-11-20T03:28:41;101266.94;;;0.77;67.75
64551;BME280;50945;44.472;-123.352;2022-11-20T03:31:15;101266.94;;;0.77;67.97
64551;BME280;50945;44.472;-123.352;2022-11-20T03:33:43;101278.75;;;0.74;67.82
64551;BME280;50945;44.472;-123.352;2022-11-20T03:36:12;101270.09;;;0.69;67.71
64551;BME280;50945;44.472;-123.352;2022-11-20T03:38:39;101275.91;;;0.63;67.99
64551;BME280;50945;44.472;-123.352;2022-11-20T03:41:08;101271.09;;;0.53;69.35
64551;BME280;50945;44.472;-123.352;2022-11-20T03:43:35;101270.44;;;0.50;68.29
64551;BME280;50945;44.472;-123.352;2022-11-20T03:46:02;101271.47;;;0.47;68.83
64551;BME280;50945;44.472;-123.352;2022-11-20T03:48:29;101267.25;;;0.43;68.23
64551;BME280;50945;44.472;-123.352;2022-11-20T03:51:34;101277.44;;;0.38;69.18
64551;BME280;50945;44.472;-123.352;2022-11-20T03:54:02;101274.19;;;0.33;68.79
64551;BME280;50945;44.472;-123.352;2022-11-20T03:56:31;101271.69;;;0.30;69.15
64551;BME280;50945;44.472;-123.352;2022-11-20T03:58:58;101273.59;;;0.28;69.03
64551;BME280;50945;44.472;-123.352;2022-11-20T04:01:31;101275.44;;;0.27;69.46
64551;BME280;50945;44.472;-123.352;2022-11-20T04:03:57;101272.84;;;0.26;68.43
64551;BME280;50945;44.472;-123.352;2022-11-20T04:06:26;101271.22;;;0.23;68.72
64551;BME280;50945;44.472;-123.352;2022-11-20T04:08:58;101275.13;;;0.17;68.66
64551;BME280;50945;44.472;-123.352;2022-11-20T04:11:28;101275.53;;;0.11;69.06
64551;BME280;50945;44.472;-123.352;2022-11-20T04:13:57;101270.31;;;0.08;69.17
64551;BME280;50945;44.472;-123.352;2022-11-20T04:16:26;101276.78;;;0.06;69.61
64551;BME280;50945;44.472;-123.352;2022-11-20T04:18:56;101281.47;;;0.02;69.70
64551;BME280;50945;44.472;-123.352;2022-11-20T04:21:24;101271.94;;;-0.04;69.74
64551;BME280;50945;44.472;-123.352;2022-11-20T04:23:52;101280.13;;;-0.05;70.83
64551;BME280;50945;44.472;-123.352;2022-11-20T04:26:20;101280.28;;;-0.08;70.44
64551;BME280;50945;44.472;-123.352;2022-11-20T04:28:47;101279.53;;;-0.10;69.58
64551;BME280;50945;44.472;-123.352;2022-11-20T04:31:15;101280.78;;;-0.16;70.07
64551;BME280;50945;44.472;-123.352;2022-11-20T04:33:42;101279.22;;;-0.20;70.49
64551;BME280;50945;44.472;-123.352;2022-11-20T04:36:17;101278.44;;;-0.22;70.70
64551;BME280;50945;44.472;-123.352;2022-11-20T04:38:45;101289.38;;;-0.25;71.06
64551;BME280;50945;44.472;-123.352;2022-11-20T04:41:20;101287.75;;;-0.28;70.28
64551;BME280;50945;44.472;-123.352;2022-11-20T04:43:51;101287.75;;;-0.28;70.62
64551;BME280;50945;44.472;-123.352;2022-11-20T04:46:19;101295.72;;;-0.26;70.67
64551;BME280;50945;44.472;-123.352;2022-11-20T04:48:47;101292.13;;;-0.27;70.42
64551;BME280;50945;44.472;-123.352;2022-11-20T04:51:13;101295.81;;;-0.28;70.38
64551;BME280;50945;44.472;-123.352;2022-11-20T04:53:41;101294.16;;;-0.30;71.09
64551;BME280;50945;44.472;-123.352;2022-11-20T04:56:09;101298.97;;;-0.35;70.69
64551;BME280;50945;44.472;-123.352;2022-11-20T04:58:39;101294.72;;;-0.40;70.77
64551;BME280;50945;44.472;-123.352;2022-11-20T05:01:09;101302.97;;;-0.43;70.78
64551;BME280;50945;44.472;-123.352;2022-11-20T05:03:39;101301.31;;;-0.45;71.05
64551;BME280;50945;44.472;-123.352;2022-11-20T05:06:11;101308.53;;;-0.46;71.11
64551;BME280;50945;44.472;-123.352;2022-11-20T05:08:37;101304.00;;;-0.45;70.71
64551;BME280;50945;44.472;-123.352;2022-11-20T05:13:32;101311.19;;;-0.46;71.00
64551;BME280;50945;44.472;-123.352;2022-11-20T05:16:06;101304.09;;;-0.47;72.23
64551;BME280;50945;44.472;-123.352;2022-11-20T05:18:37;101307.06;;;-0.51;70.75
64551;BME280;50945;44.472;-123.352;2022-11-20T05:21:05;101319.69;;;-0.53;71.19
64551;BME280;50945;44.472;-123.352;2022-11-20T05:23:32;101322.66;;;-0.58;72.54
64551;BME280;50945;44.472;-123.352;2022-11-20T05:25:59;101326.28;;;-0.59;71.77
64551;BME280;50945;44.472;-123.352;2022-11-20T05:28:27;101312.88;;;-0.59;71.86
64551;BME280;50945;44.472;-123.352;2022-11-20T05:31:03;101318.22;;;-0.59;72.05
64551;BME280;50945;44.472;-123.352;2022-11-20T05:33:30;101336.00;;;-0.56;71.97
64551;BME280;50945;44.472;-123.352;2022-11-20T05:35:59;101331.56;;;-0.58;71.14
64551;BME280;50945;44.472;-123.352;2022-11-20T05:38:25;101328.97;;;-0.59;72.41
64551;BME280;50945;44.472;-123.352;2022-11-20T05:40:52;101339.81;;;-0.61;71.87
64551;BME280;50945;44.472;-123.352;2022-11-20T05:43:19;101338.25;;;-0.65;71.69
64551;BME280;50945;44.472;-123.352;2022-11-20T05:45:53;101342.09;;;-0.69;71.79
64551;BME280;50945;44.472;-123.352;2022-11-20T05:48:19;101344.00;;;-0.71;73.02
64551;BME280;50945;44.472;-123.352;2022-11-20T05:50:48;101339.66;;;-0.73;72.98
64551;BME280;50945;44.472;-123.352;2022-11-20T05:53:14;101349.78;;;-0.79;73.04
64551;BME280;50945;44.472;-123.352;2022-11-20T05:55:41;101346.41;;;-0.82;73.01
64551;BME280;50945;44.472;-123.352;2022-11-20T05:58:07;101352.84;;;-0.85;73.33
64551;BME280;50945;44.472;-123.352;2022-11-20T06:00:34;101348.69;;;-0.90;73.03
64551;BME280;50945;44.472;-123.352;2022-11-20T06:03:01;101352.47;;;-0.94;73.51
64551;BME280;50945;44.472;-123.352;2022-11-20T06:05:28;101356.28;;;-0.99;73.65
64551;BME280;50945;44.472;-123.352;2022-11-20T06:07:54;101360.88;;;-1.01;73.95
64551;BME280;50945;44.472;-123.352;2022-11-20T06:10:21;101354.75;;;-1.03;73.82
64551;BME280;50945;44.472;-123.352;2022-11-20T06:12:47;101354.66;;;-1.01;74.13
64551;BME280;50945;44.472;-123.352;2022-11-20T06:15:13;101353.69;;;-1.00;73.97
64551;BME280;50945;44.472;-123.352;2022-11-20T06:17:40;101350.16;;;-1.01;73.88
64551;BME280;50945;44.472;-123.352;2022-11-20T06:20:06;101350.06;;;-0.99;73.53
64551;BME280;50945;44.472;-123.352;2022-11-20T06:22:33;101353.78;;;-1.02;73.45
64551;BME280;50945;44.472;-123.352;2022-11-20T06:24:59;101356.53;;;-1.03;73.86
64551;BME280;50945;44.472;-123.352;2022-11-20T06:27:27;101361.22;;;-1.07;74.05
64551;BME280;50945;44.472;-123.352;2022-11-20T06:29:53;101359.81;;;-1.14;74.15
64551;BME280;50945;44.472;-123.352;2022-11-20T06:32:19;101356.78;;;-1.24;74.77
64551;BME280;50945;44.472;-123.352;2022-11-20T06:34:46;101368.72;;;-1.29;74.82
64551;BME280;50945;44.472;-123.352;2022-11-20T06:37:12;101369.91;;;-1.35;74.45
64551;BME280;50945;44.472;-123.352;2022-11-20T06:39:39;101363.16;;;-1.42;75.03
64551;BME280;50945;44.472;-123.352;2022-11-20T06:42:05;101368.00;;;-1.49;74.90
64551;BME280;50945;44.472;-123.352;2022-11-20T06:44:31;101370.84;;;-1.52;75.26
64551;BME280;50945;44.472;-123.352;2022-11-20T06:46:58;101377.31;;;-1.56;75.42
64551;BME280;50945;44.472;-123.352;2022-11-20T06:49:25;101376.84;;;-1.64;75.20
64551;BME280;50945;44.472;-123.352;2022-11-20T06:51:52;101373.63;;;-1.71;75.87
64551;BME280;50945;44.472;-123.352;2022-11-20T06:54:18;101378.44;;;-1.78;76.15
64551;BME280;50945;44.472;-123.352;2022-11-20T06:56:48;101373.19;;;-1.79;76.50
64551;BME280;50945;44.472;-123.352;2022-11-20T06:59:14;101369.59;;;-1.80;75.64
64551;BME280;50945;44.472;-123.352;2022-11-20T07:01:41;101371.50;;;-1.82;75.25
64551;BME280;50945;44.472;-123.352;2022-11-20T07:04:07;101372.47;;;-1.83;75.48
64551;BME280;50945;44.472;-123.352;2022-11-20T07:06:33;101369.69;;;-1.81;75.91
64551;BME280;50945;44.472;-123.352;2022-11-20T07:09:00;101368.81;;;-1.82;75.39
64551;BME280;50945;44.472;-123.352;2022-11-20T07:11:27;101369.78;;;-1.83;76.24
64551;BME280;50945;44.472;-123.352;2022-11-20T07:13:53;101381.44;;;-1.84;76.05
64551;BME280;50945;44.472;-123.352;2022-11-20T07:16:20;101379.69;;;-1.85;76.25
64551;BME280;50945;44.472;-123.352;2022-11-20T07:18:46;101376.09;;;-1.84;76.71
64551;BME280;50945;44.472;-123.352;2022-11-20T07:21:12;101375.16;;;-1.83;75.93
64551;BME280;50945;44.472;-123.352;2022-11-20T07:23:41;101376.88;;;-1.82;75.93
64551;BME280;50945;44.472;-123.352;2022-11-20T07:26:09;101377.66;;;-1.80;76.26
64551;BME280;50945;44.472;-123.352;2022-11-20T07:28:36;101376.72;;;-1.79;75.92
64551;BME280;50945;44.472;-123.352;2022-11-20T07:31:03;101373.88;;;-1.76;75.10
64551;BME280;50945;44.472;-123.352;2022-11-20T07:33:30;101374.66;;;-1.74;74.57
64551;BME280;50945;44.472;-123.352;2022-11-20T07:35:59;101368.25;;;-1.71;74.19
64551;BME280;50945;44.472;-123.352;2022-11-20T07:38:26;101375.22;;;-1.67;73.88
64551;BME280;50945;44.472;-123.352;2022-11-20T07:40:56;101370.44;;;-1.62;74.98
64551;BME280;50945;44.472;-123.352;2022-11-20T07:43:26;101371.25;;;-1.60;73.93
64551;BME280;50945;44.472;-123.352;2022-11-20T07:45:56;101362.25;;;-1.59;74.38
64551;BME280;50945;44.472;-123.352;2022-11-20T07:48:23;101367.59;;;-1.59;74.29
64551;BME280;50945;44.472;-123.352;2022-11-20T07:50:49;101371.16;;;-1.58;75.54
64551;BME280;50945;44.472;-123.352;2022-11-20T07:53:18;101375.56;;;-1.57;74.78
64551;BME280;50945;44.472;-123.352;2022-11-20T07:55:47;101371.97;;;-1.56;75.08
64551;BME280;50945;44.472;-123.352;2022-11-20T07:58:14;101371.84;;;-1.55;75.59
64551;BME280;50945;44.472;-123.352;2022-11-20T08:00:41;101368.22;;;-1.54;75.52
64551;BME280;50945;44.472;-123.352;2022-11-20T08:03:07;101375.72;;;-1.60;75.16
64551;BME280;50945;44.472;-123.352;2022-11-20T08:05:34;101377.00;;;-1.67;75.68
64551;BME280;50945;44.472;-123.352;2022-11-20T08:08:00;101381.91;;;-1.76;76.07
64551;BME280;50945;44.472;-123.352;2022-11-20T08:10:27;101385.69;;;-1.80;75.89
64551;BME280;50945;44.472;-123.352;2022-11-20T08:12:53;101387.66;;;-1.83;76.17
64551;BME280;50945;44.472;-123.352;2022-11-20T08:15:39;101382.56;;;-1.88;76.91
64551;BME280;50945;44.472;-123.352;2022-11-20T08:20:32;101375.00;;;-1.97;77.10
64551;BME280;50945;44.472;-123.352;2022-11-20T08:23:00;101376.16;;;-2.03;77.42
64551;BME280;50945;44.472;-123.352;2022-11-20T08:25:28;101382.72;;;-2.08;77.32
64551;BME280;50945;44.472;-123.352;2022-11-20T08:28:02;101381.91;;;-2.11;77.32
64551;BME280;50945;44.472;-123.352;2022-11-20T08:30:29;101373.88;;;-2.11;77.45
64551;BME280;50945;44.472;-123.352;2022-11-20T08:33:04;101384.69;;;-2.12;77.39
64551;BME280;50945;44.472;-123.352;2022-11-20T08:35:35;101384.69;;;-2.12;76.97
64551;BME280;50945;44.472;-123.352;2022-11-20T08:38:02;101381.22;;;-2.14;77.66
64551;BME280;50945;44.472;-123.352;2022-11-20T08:40:29;101374.22;;;-2.17;75.61
64551;BME280;50945;44.472;-123.352;2022-11-20T08:42:56;101368.03;;;-2.19;76.00
64551;BME280;50945;44.472;-123.352;2022-11-20T08:45:22;101370.78;;;-2.20;78.30
64551;BME280;50945;44.472;-123.352;2022-11-20T08:47:48;101368.28;;;-2.23;77.02
64551;BME280;50945;44.472;-123.352;2022-11-20T08:50:16;101373.56;;;-2.22;77.87
64551;BME280;50945;44.472;-123.352;2022-11-20T08:52:43;101375.16;;;-2.18;77.99
64551;BME280;50945;44.472;-123.352;2022-11-20T08:55:10;101366.88;;;-2.13;76.85
64551;BME280;50945;44.472;-123.352;2022-11-20T08:57:37;101378.38;;;-2.11;77.17
64551;BME280;50945;44.472;-123.352;2022-11-20T09:00:06;101362.38;;;-2.13;77.14
64551;BME280;50945;44.472;-123.352;2022-11-20T09:02:33;101372.13;;;-2.12;77.42
64551;BME280;50945;44.472;-123.352;2022-11-20T09:04:59;101377.59;;;-2.13;76.51
64551;BME280;50945;44.472;-123.352;2022-11-20T09:07:28;101373.25;;;-2.16;76.89
64551;BME280;50945;44.472;-123.352;2022-11-20T09:09:55;101362.69;;;-2.19;77.35
64551;BME280;50945;44.472;-123.352;2022-11-20T09:12:21;101355.69;;;-2.21;77.83
64551;BME280;50945;44.472;-123.352;2022-11-20T09:14:47;101356.59;;;-2.22;77.86
64551;BME280;50945;44.472;-123.352;2022-11-20T09:17:14;101358.34;;;-2.21;78.54
64551;BME280;50945;44.472;-123.352;2022-11-20T09:19:40;101361.97;;;-2.22;78.13
64551;BME280;50945;44.472;-123.352;2022-11-20T09:22:07;101357.66;;;-2.25;78.03
64551;BME280;50945;44.472;-123.352;2022-11-20T09:24:33;101368.59;;;-2.30;76.99
64551;BME280;50945;44.472;-123.352;2022-11-20T09:27:02;101365.97;;;-2.31;77.46
64551;BME280;50945;44.472;-123.352;2022-11-20T09:29:31;101374.13;;;-2.33;76.65
64551;BME280;50945;44.472;-123.352;2022-11-20T09:31:58;101377.81;;;-2.35;76.60
64551;BME280;50945;44.472;-123.352;2022-11-20T09:34:24;101372.59;;;-2.38;77.60
64551;BME280;50945;44.472;-123.352;2022-11-20T09:36:53;101368.13;;;-2.38;78.12
64551;BME280;50945;44.472;-123.352;2022-11-20T09:39:20;101366.22;;;-2.36;78.78
64551;BME280;50945;44.472;-123.352;2022-11-20T09:42:25;101371.50;;;-2.34;78.73
64551;BME280;50945;44.472;-123.352;2022-11-20T09:55:37;101374.44;;;-2.21;76.88
64551;BME280;50945;44.472;-123.352;2022-11-20T09:58:15;101374.50;;;-2.23;78.15
64551;BME280;50945;44.472;-123.352;2022-11-20T10:00:44;101379.88;;;-2.23;78.33
64551;BME280;50945;44.472;-123.352;2022-11-20T10:03:18;101379.00;;;-2.23;78.19
64551;BME280;50945;44.472;-123.352;2022-11-20T10:05:53;101378.13;;;-2.24;77.06
64551;BME280;50945;44.472;-123.352;2022-11-20T10:08:21;101381.75;;;-2.25;76.69
64551;BME280;50945;44.472;-123.352;2022-11-20T10:13:55;101385.44;;;-2.27;78.67
64551;BME280;50945;44.472;-123.352;2022-11-20T10:16:46;101377.50;;;-2.29;77.99
64551;BME280;50945;44.472;-123.352;2022-11-20T10:22:20;101391.75;;;-2.28;78.23
64551;BME280;50945;44.472;-123.352;2022-11-20T10:25:06;101400.59;;;-2.26;78.03
64551;BME280;50945;44.472;-123.352;2022-11-20T10:30:16;101394.38;;;-2.27;77.97
64551;BME280;50945;44.472;-123.352;2022-11-20T10:33:33;101398.84;;;-2.27;78.28
64551;BME280;50945;44.472;-123.352;2022-11-20T10:35:42;101401.44;;;-2.26;79.00
64551;BME280;50945;44.472;-123.352;2022-11-20T10:38:17;101416.66;;;-2.26;78.74
64551;BME280;50945;44.472;-123.352;2022-11-20T10:40:54;101410.50;;;-2.28;78.27
64551;BME280;50945;44.472;-123.352;2022-11-20T10:43:47;101411.44;;;-2.30;78.36
64551;BME280;50945;44.472;-123.352;2022-11-20T10:46:18;101417.84;;;-2.32;78.44
64551;BME280;50945;44.472;-123.352;2022-11-20T10:48:47;101417.13;;;-2.36;78.36
64551;BME280;50945;44.472;-123.352;2022-11-20T10:51:37;101411.03;;;-2.39;78.94
64551;BME280;50945;44.472;-123.352;2022-11-20T10:54:12;101418.38;;;-2.43;78.44
64551;BME280;50945;44.472;-123.352;2022-11-20T10:56:53;101416.53;;;-2.42;79.41
64551;BME280;50945;44.472;-123.352;2022-11-20T11:07:58;101433.84;;;-2.50;78.60
64551;BME280;50945;44.472;-123.352;2022-11-20T11:10:39;101425.16;;;-2.55;79.61
64551;BME280;50945;44.472;-123.352;2022-11-20T11:13:07;101428.00;;;-2.58;79.76
64551;BME280;50945;44.472;-123.352;2022-11-20T11:15:44;101429.81;;;-2.58;78.83
64551;BME280;50945;44.472;-123.352;2022-11-20T11:18:11;101426.28;;;-2.59;78.88
64551;BME280;50945;44.472;-123.352;2022-11-20T11:20:52;101434.38;;;-2.60;79.16
64551;BME280;50945;44.472;-123.352;2022-11-20T11:23:45;101430.91;;;-2.62;79.32
64551;BME280;50945;44.472;-123.352;2022-11-20T11:26:22;101426.47;;;-2.63;79.52
64551;BME280;50945;44.472;-123.352;2022-11-20T11:28:57;101425.56;;;-2.62;79.46
64551;BME280;50945;44.472;-123.352;2022-11-20T11:31:34;101421.19;;;-2.65;79.43
64551;BME280;50945;44.472;-123.352;2022-11-20T11:34:18;101410.81;;;-2.71;79.77
64551;BME280;50945;44.472;-123.352;2022-11-20T11:37:04;101416.44;;;-2.77;79.98
64551;BME280;50945;44.472;-123.352;2022-11-20T11:39:37;101423.59;;;-2.78;80.04
64551;BME280;50945;44.472;-123.352;2022-11-20T11:42:13;101424.69;;;-2.82;79.75
64551;BME280;50945;44.472;-123.352;2022-11-20T11:44:46;101424.91;;;-2.87;79.63
64551;BME280;50945;44.472;-123.352;2022-11-20T11:52:53;101429.78;;;-2.95;79.85
64551;BME280;50945;44.472;-123.352;2022-11-20T11:58:56;101434.28;;;-2.97;80.39
64551;BME280;50945;44.472;-123.352;2022-11-20T12:06:58;101422.97;;;-3.02;81.23
64551;BME280;50945;44.472;-123.352;2022-11-20T12:09:35;101422.00;;;-3.01;80.85
64551;BME280;50945;44.472;-123.352;2022-11-20T12:12:11;101418.41;;;-3.00;80.50
64551;BME280;50945;44.472;-123.352;2022-11-20T12:14:43;101425.47;;;-2.99;80.53
64551;BME280;50945;44.472;-123.352;2022-11-20T12:17:13;101430.69;;;-2.96;80.66
64551;BME280;50945;44.472;-123.352;2022-11-20T12:19:41;101439.50;;;-2.94;80.22
64551;BME280;50945;44.472;-123.352;2022-11-20T12:30:21;101427.34;;;-3.01;81.05
64551;BME280;50945;44.472;-123.352;2022-11-20T12:33:35;101429.44;;;-3.08;80.80
64551;BME280;50945;44.472;-123.352;2022-11-20T12:39:01;101438.13;;;-3.21;79.90
64551;BME280;50945;44.472;-123.352;2022-11-20T12:48:41;101439.91;;;-3.41;81.96
64551;BME280;50945;44.472;-123.352;2022-11-20T13:04:30;101442.16;;;-3.32;80.67
64551;BME280;50945;44.472;-123.352;2022-11-20T13:07:01;101442.09;;;-3.30;80.81
64551;BME280;50945;44.472;-123.352;2022-11-20T13:09:28;101440.34;;;-3.31;80.38
64551;BME280;50945;44.472;-123.352;2022-11-20T13:14:42;101450.16;;;-3.32;80.96
64551;BME280;50945;44.472;-123.352;2022-11-20T13:19:52;101455.59;;;-3.33;81.21
64551;BME280;50945;44.472;-123.352;2022-11-20T13:22:45;101458.31;;;-3.35;80.55
64551;BME280;50945;44.472;-123.352;2022-11-20T13:27:54;101455.78;;;-3.38;80.31
64551;BME280;50945;44.472;-123.352;2022-11-20T13:30:28;101455.72;;;-3.36;80.55
64551;BME280;50945;44.472;-123.352;2022-11-20T13:32:59;101452.06;;;-3.34;81.24
64551;BME280;50945;44.472;-123.352;2022-11-20T13:35:41;101454.56;;;-3.31;81.03
64551;BME280;50945;44.472;-123.352;2022-11-20T13:40:59;101464.28;;;-3.28;80.51
64551;BME280;50945;44.472;-123.352;2022-11-20T13:43:47;101476.84;;;-3.30;79.69
64551;BME280;50945;44.472;-123.352;2022-11-20T13:46:14;101482.13;;;-3.29;80.31
64551;BME280;50945;44.472;-123.352;2022-11-20T13:48:45;101476.69;;;-3.27;80.75
64551;BME280;50945;44.472;-123.352;2022-11-20T13:51:42;101477.66;;;-3.28;79.82
64551;BME280;50945;44.472;-123.352;2022-11-20T14:00:23;101484.53;;;-3.22;81.30
64551;BME280;50945;44.472;-123.352;2022-11-20T14:06:05;101485.97;;;-3.15;80.68
64551;BME280;50945;44.472;-123.352;2022-11-20T14:08:47;101479.59;;;-3.13;80.28
64551;BME280;50945;44.472;-123.352;2022-11-20T14:11:20;101485.63;;;-3.08;80.67
64551;BME280;50945;44.472;-123.352;2022-11-20T14:14:10;101478.56;;;-3.09;80.99
64551;BME280;50945;44.472;-123.352;2022-11-20T14:16:39;101481.16;;;-3.07;80.88
64551;BME280;50945;44.472;-123.352;2022-11-20T14:24:37;101487.38;;;-3.07;80.94
64551;BME280;50945;44.472;-123.352;2022-11-20T14:27:03;101485.69;;;-3.09;80.54
64551;BME280;50945;44.472;-123.352;2022-11-20T14:29:34;101485.78;;;-3.11;80.79
64551;BME280;50945;44.472;-123.352;2022-11-20T14:32:01;101475.22;;;-3.14;80.94
64551;BME280;50945;44.472;-123.352;2022-11-20T14:34:31;101478.81;;;-3.15;80.53